sensor_id;sensor_type;location;lat;lon;timestamp;P1;durP1;ratioP1;P2;durP2;ratioP2
47349;SDS011;33088;51.982;5.872;2023-04-29T00:01:52;51.53;;;30.08;;
47349;SDS011;33088;51.982;5.872;2023-04-29T00:04:23;47.00;;;27.48;;
47349;SDS011;33088;51.982;5.872;2023-04-29T00:06:49;48.10;;;27.70;;
47349;SDS011;33088;51.982;5.872;2023-04-29T00:09:15;48.72;;;28.90;;
47349;SDS011;33088;51.982;5.872;2023-04-29T00:11:40;45.97;;;28.17;;
47349;SDS011;33088;51.982;5.872;2023-04-29T00:14:06;55.33;;;30.05;;
47349;SDS011;33088;51.982;5.872;2023-04-29T00:16:32;55.78;;;30.30;;
47349;SDS011;33088;51.982;5.872;2023-04-29T00:18:57;46.55;;;29.60;;
47349;SDS011;33088;51.982;5.872;2023-04-29T00:21:24;49.22;;;30.15;;
47349;SDS011;33088;51.982;5.872;2023-04-29T00:23:51;50.72;;;31.48;;
47349;SDS011;33088;51.982;5.872;2023-04-29T00:26:17;52.80;;;32.20;;
47349;SDS011;33088;51.982;5.872;2023-04-29T00:28:45;50.40;;;30.02;;
47349;SDS011;33088;51.982;5.872;2023-04-29T00:31:11;56.13;;;32.03;;
47349;SDS011;33088;51.982;5.872;2023-04-29T00:33:38;52.42;;;32.38;;
47349;SDS011;33088;51.982;5.872;2023-04-29T00:36:05;51.13;;;32.00;;
47349;SDS011;33088;51.982;5.872;2023-04-29T00:38:31;45.42;;;28.73;;
47349;SDS011;33088;51.982;5.872;2023-04-29T00:40:56;47.72;;;29.08;;
47349;SDS011;33088;51.982;5.872;2023-04-29T00:43:22;51.35;;;29.35;;
47349;SDS011;33088;51.982;5.872;2023-04-29T00:45:48;47.60;;;29.13;;
47349;SDS011;33088;51.982;5.872;2023-04-29T00:48:15;56.38;;;32.15;;
47349;SDS011;33088;51.982;5.872;2023-04-29T00:50:41;53.47;;;31.13;;
47349;SDS011;33088;51.982;5.872;2023-04-29T00:53:07;49.08;;;29.38;;
47349;SDS011;33088;51.982;5.872;2023-04-29T00:55:36;43.22;;;28.20;;
47349;SDS011;33088;51.982;5.872;2023-04-29T00:58:02;56.30;;;31.15;;
47349;SDS011;33088;51.982;5.872;2023-04-29T01:00:31;50.08;;;29.63;;
47349;SDS011;33088;51.982;5.872;2023-04-29T01:02:57;51.22;;;28.63;;
47349;SDS011;33088;51.982;5.872;2023-04-29T01:05:23;48.03;;;29.25;;
47349;SDS011;33088;51.982;5.872;2023-04-29T01:10:43;40.38;;;25.55;;
47349;SDS011;33088;51.982;5.872;2023-04-29T01:13:16;41.05;;;27.42;;
47349;SDS011;33088;51.982;5.872;2023-04-29T01:16:08;44.55;;;25.70;;
47349;SDS011;33088;51.982;5.872;2023-04-29T01:18:39;43.05;;;27.55;;
47349;SDS011;33088;51.982;5.872;2023-04-29T01:21:08;44.85;;;26.60;;
47349;SDS011;33088;51.982;5.872;2023-04-29T01:23:33;43.85;;;24.75;;
47349;SDS011;33088;51.982;5.872;2023-04-29T01:25:59;40.25;;;24.58;;
47349;SDS011;33088;51.982;5.872;2023-04-29T01:29:00;39.13;;;23.25;;
47349;SDS011;33088;51.982;5.872;2023-04-29T01:31:48;44.35;;;24.77;;
47349;SDS011;33088;51.982;5.872;2023-04-29T01:34:25;45.20;;;25.90;;
47349;SDS011;33088;51.982;5.872;2023-04-29T01:39:56;52.78;;;27.55;;
47349;SDS011;33088;51.982;5.872;2023-04-29T01:42:46;39.60;;;24.13;;
47349;SDS011;33088;51.982;5.872;2023-04-29T01:45:19;47.05;;;26.33;;
47349;SDS011;33088;51.982;5.872;2023-04-29T01:47:46;41.65;;;24.73;;
47349;SDS011;33088;51.982;5.872;2023-04-29T01:50:16;40.63;;;25.85;;
47349;SDS011;33088;51.982;5.872;2023-04-29T01:52:42;45.28;;;24.70;;
47349;SDS011;33088;51.982;5.872;2023-04-29T01:55:08;44.92;;;26.88;;
47349;SDS011;33088;51.982;5.872;2023-04-29T01:58:01;44.78;;;24.90;;
47349;SDS011;33088;51.982;5.872;2023-04-29T02:00:45;34.42;;;24.55;;
47349;SDS011;33088;51.982;5.872;2023-04-29T02:03:10;34.22;;;23.52;;
47349;SDS011;33088;51.982;5.872;2023-04-29T02:05:39;41.53;;;24.70;;
47349;SDS011;33088;51.982;5.872;2023-04-29T02:08:05;42.50;;;24.70;;
47349;SDS011;33088;51.982;5.872;2023-04-29T02:10:35;39.70;;;23.88;;
47349;SDS011;33088;51.982;5.872;2023-04-29T02:13:17;36.88;;;23.42;;
47349;SDS011;33088;51.982;5.872;2023-04-29T02:15:43;46.30;;;24.52;;
47349;SDS011;33088;51.982;5.872;2023-04-29T02:18:09;41.42;;;25.02;;
47349;SDS011;33088;51.982;5.872;2023-04-29T02:20:35;43.15;;;24.05;;
47349;SDS011;33088;51.982;5.872;2023-04-29T02:23:03;39.65;;;23.23;;
47349;SDS011;33088;51.982;5.872;2023-04-29T02:25:29;42.80;;;24.30;;
47349;SDS011;33088;51.982;5.872;2023-04-29T02:28:00;45.55;;;26.15;;
47349;SDS011;33088;51.982;5.872;2023-04-29T02:30:26;37.03;;;21.67;;
47349;SDS011;33088;51.982;5.872;2023-04-29T02:32:52;37.15;;;22.33;;
47349;SDS011;33088;51.982;5.872;2023-04-29T02:35:18;39.85;;;23.90;;
47349;SDS011;33088;51.982;5.872;2023-04-29T02:37:44;46.40;;;23.95;;
47349;SDS011;33088;51.982;5.872;2023-04-29T02:40:11;40.70;;;22.10;;
47349;SDS011;33088;51.982;5.872;2023-04-29T02:42:36;36.42;;;24.20;;
47349;SDS011;33088;51.982;5.872;2023-04-29T02:45:02;35.13;;;21.10;;
47349;SDS011;33088;51.982;5.872;2023-04-29T02:47:28;39.63;;;23.17;;
47349;SDS011;33088;51.982;5.872;2023-04-29T02:49:54;35.85;;;22.80;;
47349;SDS011;33088;51.982;5.872;2023-04-29T02:52:20;30.58;;;20.90;;
47349;SDS011;33088;51.982;5.872;2023-04-29T02:54:46;36.17;;;21.23;;
47349;SDS011;33088;51.982;5.872;2023-04-29T02:57:12;38.22;;;23.25;;
47349;SDS011;33088;51.982;5.872;2023-04-29T02:59:38;40.65;;;22.80;;
47349;SDS011;33088;51.982;5.872;2023-04-29T03:02:03;42.60;;;23.23;;
47349;SDS011;33088;51.982;5.872;2023-04-29T03:04:29;33.83;;;21.30;;
47349;SDS011;33088;51.982;5.872;2023-04-29T03:06:55;35.28;;;22.88;;
47349;SDS011;33088;51.982;5.872;2023-04-29T03:09:21;36.25;;;22.33;;
47349;SDS011;33088;51.982;5.872;2023-04-29T03:11:47;42.78;;;22.35;;
47349;SDS011;33088;51.982;5.872;2023-04-29T03:14:13;39.28;;;23.05;;
47349;SDS011;33088;51.982;5.872;2023-04-29T03:16:39;37.13;;;23.23;;
47349;SDS011;33088;51.982;5.872;2023-04-29T03:19:05;33.42;;;21.08;;
47349;SDS011;33088;51.982;5.872;2023-04-29T03:21:31;44.22;;;24.52;;
47349;SDS011;33088;51.982;5.872;2023-04-29T03:23:57;33.80;;;21.73;;
47349;SDS011;33088;51.982;5.872;2023-04-29T03:26:28;43.33;;;22.58;;
47349;SDS011;33088;51.982;5.872;2023-04-29T03:28:55;34.28;;;21.00;;
47349;SDS011;33088;51.982;5.872;2023-04-29T03:31:22;41.50;;;23.33;;
47349;SDS011;33088;51.982;5.872;2023-04-29T03:33:49;35.53;;;22.52;;
47349;SDS011;33088;51.982;5.872;2023-04-29T03:36:17;38.45;;;21.73;;
47349;SDS011;33088;51.982;5.872;2023-04-29T03:38:57;37.85;;;21.33;;
47349;SDS011;33088;51.982;5.872;2023-04-29T03:41:23;42.92;;;23.63;;
47349;SDS011;33088;51.982;5.872;2023-04-29T03:43:49;35.35;;;21.65;;
47349;SDS011;33088;51.982;5.872;2023-04-29T03:46:15;42.30;;;23.77;;
47349;SDS011;33088;51.982;5.872;2023-04-29T03:48:41;34.35;;;21.52;;
47349;SDS011;33088;51.982;5.872;2023-04-29T03:51:07;39.50;;;23.23;;
47349;SDS011;33088;51.982;5.872;2023-04-29T03:53:36;42.53;;;22.73;;
47349;SDS011;33088;51.982;5.872;2023-04-29T03:56:10;37.88;;;22.85;;
47349;SDS011;33088;51.982;5.872;2023-04-29T03:58:35;30.17;;;20.50;;
47349;SDS011;33088;51.982;5.872;2023-04-29T04:01:01;37.67;;;22.13;;
47349;SDS011;33088;51.982;5.872;2023-04-29T04:03:35;41.17;;;23.10;;
47349;SDS011;33088;51.982;5.872;2023-04-29T04:06:01;31.95;;;21.15;;
47349;SDS011;33088;51.982;5.872;2023-04-29T04:08:26;38.92;;;22.60;;
47349;SDS011;33088;51.982;5.872;2023-04-29T04:11:04;37.85;;;22.23;;
47349;SDS011;33088;51.982;5.872;2023-04-29T04:13:50;37.92;;;22.30;;
47349;SDS011;33088;51.982;5.872;2023-04-29T04:16:16;37.78;;;21.92;;
47349;SDS011;33088;51.982;5.872;2023-04-29T04:18:42;32.75;;;20.85;;
47349;SDS011;33088;51.982;5.872;2023-04-29T04:21:08;33.42;;;20.25;;
47349;SDS011;33088;51.982;5.872;2023-04-29T04:23:37;30.65;;;20.27;;
47349;SDS011;33088;51.982;5.872;2023-04-29T04:26:08;32.08;;;20.95;;
47349;SDS011;33088;51.982;5.872;2023-04-29T04:28:56;37.15;;;21.98;;
47349;SDS011;33088;51.982;5.872;2023-04-29T04:31:31;31.70;;;21.10;;
47349;SDS011;33088;51.982;5.872;2023-04-29T04:33:56;35.83;;;21.67;;
47349;SDS011;33088;51.982;5.872;2023-04-29T04:36:24;32.63;;;20.20;;
47349;SDS011;33088;51.982;5.872;2023-04-29T04:38:50;33.58;;;18.90;;
47349;SDS011;33088;51.982;5.872;2023-04-29T04:41:16;27.38;;;18.15;;
47349;SDS011;33088;51.982;5.872;2023-04-29T04:43:45;29.90;;;20.25;;
47349;SDS011;33088;51.982;5.872;2023-04-29T04:46:16;34.38;;;19.70;;
47349;SDS011;33088;51.982;5.872;2023-04-29T04:48:51;27.58;;;18.25;;
47349;SDS011;33088;51.982;5.872;2023-04-29T04:51:18;25.23;;;17.50;;
47349;SDS011;33088;51.982;5.872;2023-04-29T04:53:45;24.58;;;16.25;;
47349;SDS011;33088;51.982;5.872;2023-04-29T04:58:43;24.42;;;16.00;;
47349;SDS011;33088;51.982;5.872;2023-04-29T05:01:08;26.80;;;17.52;;
47349;SDS011;33088;51.982;5.872;2023-04-29T05:03:34;26.67;;;18.40;;
47349;SDS011;33088;51.982;5.872;2023-04-29T05:06:00;21.80;;;15.15;;
47349;SDS011;33088;51.982;5.872;2023-04-29T05:08:27;22.73;;;15.48;;
47349;SDS011;33088;51.982;5.872;2023-04-29T05:10:54;26.00;;;17.27;;
47349;SDS011;33088;51.982;5.872;2023-04-29T05:13:23;24.02;;;17.02;;
47349;SDS011;33088;51.982;5.872;2023-04-29T05:15:52;24.83;;;17.33;;
47349;SDS011;33088;51.982;5.872;2023-04-29T05:18:21;24.20;;;15.43;;
47349;SDS011;33088;51.982;5.872;2023-04-29T05:20:49;28.35;;;16.85;;
47349;SDS011;33088;51.982;5.872;2023-04-29T05:23:15;26.00;;;17.40;;
47349;SDS011;33088;51.982;5.872;2023-04-29T05:25:43;24.55;;;16.27;;
47349;SDS011;33088;51.982;5.872;2023-04-29T05:28:09;21.63;;;15.40;;
47349;SDS011;33088;51.982;5.872;2023-04-29T05:30:38;23.73;;;15.50;;
47349;SDS011;33088;51.982;5.872;2023-04-29T05:33:04;22.80;;;15.75;;
47349;SDS011;33088;51.982;5.872;2023-04-29T05:35:30;24.10;;;15.80;;
47349;SDS011;33088;51.982;5.872;2023-04-29T05:37:57;21.35;;;15.93;;
47349;SDS011;33088;51.982;5.872;2023-04-29T05:40:35;24.95;;;15.63;;
47349;SDS011;33088;51.982;5.872;2023-04-29T05:43:26;20.42;;;14.50;;
47349;SDS011;33088;51.982;5.872;2023-04-29T05:45:53;23.95;;;16.15;;
47349;SDS011;33088;51.982;5.872;2023-04-29T05:48:18;22.55;;;17.45;;
47349;SDS011;33088;51.982;5.872;2023-04-29T05:50:44;33.35;;;17.05;;
47349;SDS011;33088;51.982;5.872;2023-04-29T05:53:12;21.63;;;15.60;;
47349;SDS011;33088;51.982;5.872;2023-04-29T05:55:38;24.83;;;16.20;;
47349;SDS011;33088;51.982;5.872;2023-04-29T05:58:04;21.83;;;15.88;;
47349;SDS011;33088;51.982;5.872;2023-04-29T06:00:29;25.90;;;15.95;;
47349;SDS011;33088;51.982;5.872;2023-04-29T06:03:05;26.33;;;16.45;;
47349;SDS011;33088;51.982;5.872;2023-04-29T06:05:34;24.83;;;15.75;;
47349;SDS011;33088;51.982;5.872;2023-04-29T06:08:30;24.50;;;15.80;;
47349;SDS011;33088;51.982;5.872;2023-04-29T06:11:09;26.52;;;17.02;;
47349;SDS011;33088;51.982;5.872;2023-04-29T06:13:35;23.75;;;17.05;;
47349;SDS011;33088;51.982;5.872;2023-04-29T06:16:00;23.30;;;16.17;;
47349;SDS011;33088;51.982;5.872;2023-04-29T06:18:30;27.90;;;16.55;;
47349;SDS011;33088;51.982;5.872;2023-04-29T06:20:57;30.08;;;17.45;;
47349;SDS011;33088;51.982;5.872;2023-04-29T06:23:23;25.05;;;15.32;;
47349;SDS011;33088;51.982;5.872;2023-04-29T06:25:48;24.17;;;15.30;;
47349;SDS011;33088;51.982;5.872;2023-04-29T06:28:15;24.48;;;15.63;;
47349;SDS011;33088;51.982;5.872;2023-04-29T06:30:42;24.98;;;16.13;;
47349;SDS011;33088;51.982;5.872;2023-04-29T06:33:09;22.95;;;15.93;;
47349;SDS011;33088;51.982;5.872;2023-04-29T06:35:37;23.13;;;16.98;;
47349;SDS011;33088;51.982;5.872;2023-04-29T06:38:19;22.25;;;16.40;;
47349;SDS011;33088;51.982;5.872;2023-04-29T06:41:05;21.98;;;14.95;;
47349;SDS011;33088;51.982;5.872;2023-04-29T06:43:49;27.35;;;16.02;;
47349;SDS011;33088;51.982;5.872;2023-04-29T06:46:35;25.95;;;15.70;;
47349;SDS011;33088;51.982;5.872;2023-04-29T06:49:05;23.00;;;14.77;;
47349;SDS011;33088;51.982;5.872;2023-04-29T06:51:31;25.45;;;15.88;;
47349;SDS011;33088;51.982;5.872;2023-04-29T06:53:57;31.13;;;15.88;;
47349;SDS011;33088;51.982;5.872;2023-04-29T06:56:23;23.70;;;15.00;;
47349;SDS011;33088;51.982;5.872;2023-04-29T06:58:49;19.08;;;14.13;;
47349;SDS011;33088;51.982;5.872;2023-04-29T07:01:15;26.60;;;13.25;;
47349;SDS011;33088;51.982;5.872;2023-04-29T07:03:41;23.52;;;14.52;;
47349;SDS011;33088;51.982;5.872;2023-04-29T07:06:07;22.70;;;14.57;;
47349;SDS011;33088;51.982;5.872;2023-04-29T07:08:33;23.30;;;14.48;;
47349;SDS011;33088;51.982;5.872;2023-04-29T07:10:59;21.50;;;14.32;;
47349;SDS011;33088;51.982;5.872;2023-04-29T07:13:24;21.67;;;14.40;;
47349;SDS011;33088;51.982;5.872;2023-04-29T07:15:50;32.67;;;16.10;;
47349;SDS011;33088;51.982;5.872;2023-04-29T07:18:16;20.88;;;13.40;;
47349;SDS011;33088;51.982;5.872;2023-04-29T07:20:42;20.13;;;13.15;;
47349;SDS011;33088;51.982;5.872;2023-04-29T07:23:08;20.02;;;12.65;;
47349;SDS011;33088;51.982;5.872;2023-04-29T07:25:34;23.73;;;13.05;;
47349;SDS011;33088;51.982;5.872;2023-04-29T07:28:01;23.30;;;12.93;;
47349;SDS011;33088;51.982;5.872;2023-04-29T07:30:29;17.00;;;11.90;;
47349;SDS011;33088;51.982;5.872;2023-04-29T07:32:55;19.45;;;12.98;;
47349;SDS011;33088;51.982;5.872;2023-04-29T07:35:21;22.27;;;12.73;;
47349;SDS011;33088;51.982;5.872;2023-04-29T07:37:46;18.65;;;13.35;;
47349;SDS011;33088;51.982;5.872;2023-04-29T07:40:17;20.10;;;12.77;;
47349;SDS011;33088;51.982;5.872;2023-04-29T07:42:48;20.92;;;12.05;;
47349;SDS011;33088;51.982;5.872;2023-04-29T07:45:16;20.10;;;11.95;;
47349;SDS011;33088;51.982;5.872;2023-04-29T07:47:42;19.20;;;11.13;;
47349;SDS011;33088;51.982;5.872;2023-04-29T07:50:17;19.83;;;12.00;;
47349;SDS011;33088;51.982;5.872;2023-04-29T07:52:45;21.08;;;12.07;;
47349;SDS011;33088;51.982;5.872;2023-04-29T07:55:18;18.75;;;11.95;;
47349;SDS011;33088;51.982;5.872;2023-04-29T07:57:43;15.90;;;10.95;;
47349;SDS011;33088;51.982;5.872;2023-04-29T08:00:10;19.30;;;11.75;;
47349;SDS011;33088;51.982;5.872;2023-04-29T08:02:49;17.45;;;11.48;;
47349;SDS011;33088;51.982;5.872;2023-04-29T08:05:19;16.40;;;10.90;;
47349;SDS011;33088;51.982;5.872;2023-04-29T08:07:46;18.35;;;10.60;;
47349;SDS011;33088;51.982;5.872;2023-04-29T08:10:16;14.43;;;10.20;;
47349;SDS011;33088;51.982;5.872;2023-04-29T08:12:46;17.65;;;10.57;;
47349;SDS011;33088;51.982;5.872;2023-04-29T08:15:21;18.35;;;9.70;;
47349;SDS011;33088;51.982;5.872;2023-04-29T08:17:46;14.57;;;10.52;;
47349;SDS011;33088;51.982;5.872;2023-04-29T08:20:12;18.30;;;10.00;;
47349;SDS011;33088;51.982;5.872;2023-04-29T08:22:39;15.32;;;9.88;;
47349;SDS011;33088;51.982;5.872;2023-04-29T08:25:05;17.88;;;9.73;;
47349;SDS011;33088;51.982;5.872;2023-04-29T08:27:36;19.65;;;10.40;;
47349;SDS011;33088;51.982;5.872;2023-04-29T08:30:06;13.45;;;9.38;;
47349;SDS011;33088;51.982;5.872;2023-04-29T08:32:35;14.02;;;9.77;;
47349;SDS011;33088;51.982;5.872;2023-04-29T08:35:01;13.80;;;9.27;;
47349;SDS011;33088;51.982;5.872;2023-04-29T08:37:32;15.85;;;9.27;;
47349;SDS011;33088;51.982;5.872;2023-04-29T08:40:00;17.40;;;9.63;;
47349;SDS011;33088;51.982;5.872;2023-04-29T08:42:35;13.95;;;10.18;;
47349;SDS011;33088;51.982;5.872;2023-04-29T08:45:08;17.85;;;10.52;;
47349;SDS011;33088;51.982;5.872;2023-04-29T08:47:44;14.70;;;8.20;;
47349;SDS011;33088;51.982;5.872;2023-04-29T08:50:18;11.23;;;8.80;;
47349;SDS011;33088;51.982;5.872;2023-04-29T08:52:44;14.70;;;9.07;;
47349;SDS011;33088;51.982;5.872;2023-04-29T08:55:12;11.77;;;8.77;;
47349;SDS011;33088;51.982;5.872;2023-04-29T08:57:50;17.15;;;9.63;;
47349;SDS011;33088;51.982;5.872;2023-04-29T09:00:19;9.90;;;7.53;;
47349;SDS011;33088;51.982;5.872;2023-04-29T09:02:58;13.07;;;7.82;;
47349;SDS011;33088;51.982;5.872;2023-04-29T09:05:29;10.65;;;8.07;;
47349;SDS011;33088;51.982;5.872;2023-04-29T09:07:57;12.30;;;7.57;;
47349;SDS011;33088;51.982;5.872;2023-04-29T09:10:27;13.95;;;7.95;;
47349;SDS011;33088;51.982;5.872;2023-04-29T09:12:56;14.98;;;7.20;;
47349;SDS011;33088;51.982;5.872;2023-04-29T09:15:34;10.35;;;7.35;;
47349;SDS011;33088;51.982;5.872;2023-04-29T09:18:01;10.77;;;6.70;;
47349;SDS011;33088;51.982;5.872;2023-04-29T09:20:27;9.65;;;6.72;;
47349;SDS011;33088;51.982;5.872;2023-04-29T09:22:58;11.35;;;7.45;;
47349;SDS011;33088;51.982;5.872;2023-04-29T09:25:29;10.30;;;6.93;;
47349;SDS011;33088;51.982;5.872;2023-04-29T09:27:55;11.02;;;6.30;;
47349;SDS011;33088;51.982;5.872;2023-04-29T09:30:21;10.23;;;6.32;;
47349;SDS011;33088;51.982;5.872;2023-04-29T09:33:04;11.50;;;6.70;;
47349;SDS011;33088;51.982;5.872;2023-04-29T09:35:31;11.23;;;6.40;;
47349;SDS011;33088;51.982;5.872;2023-04-29T09:38:13;9.27;;;5.72;;
47349;SDS011;33088;51.982;5.872;2023-04-29T09:40:40;11.40;;;6.53;;
47349;SDS011;33088;51.982;5.872;2023-04-29T09:43:11;10.32;;;6.18;;
47349;SDS011;33088;51.982;5.872;2023-04-29T09:45:42;9.40;;;5.68;;
47349;SDS011;33088;51.982;5.872;2023-04-29T09:48:10;8.63;;;5.57;;
47349;SDS011;33088;51.982;5.872;2023-04-29T09:50:37;8.77;;;5.40;;
47349;SDS011;33088;51.982;5.872;2023-04-29T09:53:08;8.50;;;5.32;;
47349;SDS011;33088;51.982;5.872;2023-04-29T09:58:28;8.50;;;5.07;;
47349;SDS011;33088;51.982;5.872;2023-04-29T10:01:01;9.38;;;5.78;;
47349;SDS011;33088;51.982;5.872;2023-04-29T10:03:31;7.93;;;5.07;;
47349;SDS011;33088;51.982;5.872;2023-04-29T10:05:58;8.07;;;5.68;;
47349;SDS011;33088;51.982;5.872;2023-04-29T10:08:25;7.60;;;5.30;;
47349;SDS011;33088;51.982;5.872;2023-04-29T10:10:52;7.15;;;4.25;;
47349;SDS011;33088;51.982;5.872;2023-04-29T10:13:23;8.98;;;4.95;;
47349;SDS011;33088;51.982;5.872;2023-04-29T10:15:58;9.35;;;4.85;;
47349;SDS011;33088;51.982;5.872;2023-04-29T10:18:51;10.02;;;5.22;;
47349;SDS011;33088;51.982;5.872;2023-04-29T10:21:18;5.60;;;4.70;;
47349;SDS011;33088;51.982;5.872;2023-04-29T10:23:48;8.38;;;4.35;;
47349;SDS011;33088;51.982;5.872;2023-04-29T10:26:14;7.25;;;4.75;;
47349;SDS011;33088;51.982;5.872;2023-04-29T10:28:42;11.82;;;4.75;;
47349;SDS011;33088;51.982;5.872;2023-04-29T10:31:10;6.07;;;3.90;;
47349;SDS011;33088;51.982;5.872;2023-04-29T10:33:37;8.18;;;4.78;;
47349;SDS011;33088;51.982;5.872;2023-04-29T10:36:07;8.60;;;5.22;;
47349;SDS011;33088;51.982;5.872;2023-04-29T10:38:44;8.75;;;4.95;;
47349;SDS011;33088;51.982;5.872;2023-04-29T10:43:51;10.35;;;4.65;;
47349;SDS011;33088;51.982;5.872;2023-04-29T10:46:21;8.00;;;4.32;;
47349;SDS011;33088;51.982;5.872;2023-04-29T10:48:49;8.13;;;4.72;;
47349;SDS011;33088;51.982;5.872;2023-04-29T10:54:18;6.97;;;4.05;;
47349;SDS011;33088;51.982;5.872;2023-04-29T10:56:50;4.53;;;3.33;;
47349;SDS011;33088;51.982;5.872;2023-04-29T10:59:59;7.20;;;4.32;;
47349;SDS011;33088;51.982;5.872;2023-04-29T11:02:05;8.95;;;4.93;;
47349;SDS011;33088;51.982;5.872;2023-04-29T11:04:31;5.53;;;4.60;;
47349;SDS011;33088;51.982;5.872;2023-04-29T11:06:57;6.25;;;4.55;;
47349;SDS011;33088;51.982;5.872;2023-04-29T11:09:24;9.65;;;4.63;;
47349;SDS011;33088;51.982;5.872;2023-04-29T11:14:29;5.60;;;3.45;;
47349;SDS011;33088;51.982;5.872;2023-04-29T11:16:57;6.05;;;3.58;;
47349;SDS011;33088;51.982;5.872;2023-04-29T11:19:29;9.48;;;4.00;;
47349;SDS011;33088;51.982;5.872;2023-04-29T11:22:03;5.10;;;3.67;;
47349;SDS011;33088;51.982;5.872;2023-04-29T11:24:34;4.22;;;3.30;;
47349;SDS011;33088;51.982;5.872;2023-04-29T11:27:03;6.22;;;4.07;;
47349;SDS011;33088;51.982;5.872;2023-04-29T11:29:30;4.68;;;3.15;;
47349;SDS011;33088;51.982;5.872;2023-04-29T11:31:57;7.57;;;4.03;;
47349;SDS011;33088;51.982;5.872;2023-04-29T11:34:26;4.72;;;3.40;;
47349;SDS011;33088;51.982;5.872;2023-04-29T11:36:52;7.65;;;3.92;;
47349;SDS011;33088;51.982;5.872;2023-04-29T11:39:18;5.57;;;3.70;;
47349;SDS011;33088;51.982;5.872;2023-04-29T11:41:43;5.97;;;3.25;;
47349;SDS011;33088;51.982;5.872;2023-04-29T11:44:10;7.20;;;3.58;;
47349;SDS011;33088;51.982;5.872;2023-04-29T11:46:36;5.13;;;3.05;;
47349;SDS011;33088;51.982;5.872;2023-04-29T11:49:02;4.50;;;3.50;;
47349;SDS011;33088;51.982;5.872;2023-04-29T11:51:27;9.05;;;4.03;;
47349;SDS011;33088;51.982;5.872;2023-04-29T11:53:53;6.65;;;3.45;;
47349;SDS011;33088;51.982;5.872;2023-04-29T11:56:21;4.10;;;3.53;;
47349;SDS011;33088;51.982;5.872;2023-04-29T11:58:49;7.30;;;3.38;;
47349;SDS011;33088;51.982;5.872;2023-04-29T12:01:19;5.97;;;2.80;;
47349;SDS011;33088;51.982;5.872;2023-04-29T12:03:47;5.03;;;3.00;;
47349;SDS011;33088;51.982;5.872;2023-04-29T12:06:13;6.18;;;3.05;;
47349;SDS011;33088;51.982;5.872;2023-04-29T12:08:39;6.93;;;4.28;;
47349;SDS011;33088;51.982;5.872;2023-04-29T12:11:05;8.07;;;3.88;;
47349;SDS011;33088;51.982;5.872;2023-04-29T12:13:31;7.47;;;3.78;;
47349;SDS011;33088;51.982;5.872;2023-04-29T12:16:00;4.75;;;3.47;;
47349;SDS011;33088;51.982;5.872;2023-04-29T12:18:26;7.93;;;3.40;;
47349;SDS011;33088;51.982;5.872;2023-04-29T12:20:54;6.35;;;4.10;;
47349;SDS011;33088;51.982;5.872;2023-04-29T12:23:21;5.70;;;3.63;;
47349;SDS011;33088;51.982;5.872;2023-04-29T12:25:49;6.65;;;3.58;;
47349;SDS011;33088;51.982;5.872;2023-04-29T12:28:23;4.43;;;3.03;;
47349;SDS011;33088;51.982;5.872;2023-04-29T12:30:51;7.05;;;3.38;;
47349;SDS011;33088;51.982;5.872;2023-04-29T12:33:27;5.03;;;3.47;;
47349;SDS011;33088;51.982;5.872;2023-04-29T12:35:54;4.47;;;3.15;;
47349;SDS011;33088;51.982;5.872;2023-04-29T12:38:22;6.07;;;3.63;;
47349;SDS011;33088;51.982;5.872;2023-04-29T12:40:55;6.82;;;3.72;;
47349;SDS011;33088;51.982;5.872;2023-04-29T12:43:25;4.90;;;2.90;;
47349;SDS011;33088;51.982;5.872;2023-04-29T12:45:53;5.90;;;3.50;;
47349;SDS011;33088;51.982;5.872;2023-04-29T12:48:28;4.90;;;2.90;;
47349;SDS011;33088;51.982;5.872;2023-04-29T12:50:58;5.25;;;3.22;;
47349;SDS011;33088;51.982;5.872;2023-04-29T12:53:25;5.60;;;2.88;;
47349;SDS011;33088;51.982;5.872;2023-04-29T12:55:53;5.35;;;2.90;;
47349;SDS011;33088;51.982;5.872;2023-04-29T12:58:18;4.13;;;2.80;;
47349;SDS011;33088;51.982;5.872;2023-04-29T13:00:44;9.43;;;3.05;;
47349;SDS011;33088;51.982;5.872;2023-04-29T13:03:10;3.33;;;3.00;;
47349;SDS011;33088;51.982;5.872;2023-04-29T13:05:35;6.32;;;2.95;;
47349;SDS011;33088;51.982;5.872;2023-04-29T13:08:02;4.60;;;2.47;;
47349;SDS011;33088;51.982;5.872;2023-04-29T13:10:30;5.68;;;2.80;;
47349;SDS011;33088;51.982;5.872;2023-04-29T13:12:57;6.65;;;3.40;;
47349;SDS011;33088;51.982;5.872;2023-04-29T13:15:23;4.65;;;2.90;;
47349;SDS011;33088;51.982;5.872;2023-04-29T13:17:49;5.03;;;3.13;;
47349;SDS011;33088;51.982;5.872;2023-04-29T13:20:16;7.28;;;2.85;;
47349;SDS011;33088;51.982;5.872;2023-04-29T13:22:41;5.47;;;2.90;;
47349;SDS011;33088;51.982;5.872;2023-04-29T13:25:08;2.67;;;2.33;;
47349;SDS011;33088;51.982;5.872;2023-04-29T13:27:36;4.28;;;2.38;;
47349;SDS011;33088;51.982;5.872;2023-04-29T13:30:02;6.20;;;2.47;;
47349;SDS011;33088;51.982;5.872;2023-04-29T13:32:31;4.22;;;2.33;;
47349;SDS011;33088;51.982;5.872;2023-04-29T13:34:57;4.32;;;2.63;;
47349;SDS011;33088;51.982;5.872;2023-04-29T13:37:23;4.10;;;2.45;;
47349;SDS011;33088;51.982;5.872;2023-04-29T13:39:48;3.92;;;1.90;;
47349;SDS011;33088;51.982;5.872;2023-04-29T13:42:14;3.63;;;2.22;;
47349;SDS011;33088;51.982;5.872;2023-04-29T13:44:40;3.92;;;2.28;;
47349;SDS011;33088;51.982;5.872;2023-04-29T13:47:09;3.33;;;2.10;;
47349;SDS011;33088;51.982;5.872;2023-04-29T13:49:41;3.75;;;1.80;;
47349;SDS011;33088;51.982;5.872;2023-04-29T13:52:10;3.13;;;2.17;;
47349;SDS011;33088;51.982;5.872;2023-04-29T13:54:37;3.05;;;2.03;;
47349;SDS011;33088;51.982;5.872;2023-04-29T13:57:03;4.68;;;1.80;;
47349;SDS011;33088;51.982;5.872;2023-04-29T13:59:32;3.47;;;2.20;;
47349;SDS011;33088;51.982;5.872;2023-04-29T14:01:59;4.55;;;1.60;;
47349;SDS011;33088;51.982;5.872;2023-04-29T14:04:25;4.95;;;1.92;;
47349;SDS011;33088;51.982;5.872;2023-04-29T14:06:52;4.65;;;2.10;;
47349;SDS011;33088;51.982;5.872;2023-04-29T14:09:19;3.33;;;2.10;;
47349;SDS011;33088;51.982;5.872;2023-04-29T14:11:45;3.88;;;1.77;;
47349;SDS011;33088;51.982;5.872;2023-04-29T14:14:12;3.00;;;2.10;;
47349;SDS011;33088;51.982;5.872;2023-04-29T14:16:37;3.35;;;1.70;;
47349;SDS011;33088;51.982;5.872;2023-04-29T14:19:03;2.25;;;2.00;;
47349;SDS011;33088;51.982;5.872;2023-04-29T14:21:29;4.18;;;1.88;;
47349;SDS011;33088;51.982;5.872;2023-04-29T14:23:57;2.15;;;1.65;;
47349;SDS011;33088;51.982;5.872;2023-04-29T14:26:24;2.85;;;1.88;;
47349;SDS011;33088;51.982;5.872;2023-04-29T14:28:51;6.45;;;2.10;;
47349;SDS011;33088;51.982;5.872;2023-04-29T14:31:24;2.70;;;1.70;;
47349;SDS011;33088;51.982;5.872;2023-04-29T14:33:54;2.50;;;1.73;;
47349;SDS011;33088;51.982;5.872;2023-04-29T14:36:21;2.97;;;1.63;;
47349;SDS011;33088;51.982;5.872;2023-04-29T14:38:47;1.92;;;1.55;;
47349;SDS011;33088;51.982;5.872;2023-04-29T14:41:12;2.78;;;1.50;;
47349;SDS011;33088;51.982;5.872;2023-04-29T14:43:38;10.88;;;3.17;;
47349;SDS011;33088;51.982;5.872;2023-04-29T14:46:05;5.15;;;2.33;;
47349;SDS011;33088;51.982;5.872;2023-04-29T14:48:31;3.72;;;1.90;;
47349;SDS011;33088;51.982;5.872;2023-04-29T14:50:57;4.57;;;2.10;;
47349;SDS011;33088;51.982;5.872;2023-04-29T14:53:23;3.50;;;1.95;;
47349;SDS011;33088;51.982;5.872;2023-04-29T14:55:49;2.00;;;1.60;;
47349;SDS011;33088;51.982;5.872;2023-04-29T14:58:15;1.63;;;1.52;;
47349;SDS011;33088;51.982;5.872;2023-04-29T15:00:40;3.20;;;1.67;;